»·PEaware :: JUS326 KJAC-KGJT

JUS326 :: KJAC-KGJT

FLIGHT INFORMATION

Flight Status: Arrived
Operator:
USA Jet
More flights by this operator :: More flights under this callsign
Pilot: Erik S. (3779)
Aircraft: BOEING 737-300
(B733)
More flights by this aircraft type
Origin: KJAC Jackson Hole
United States
Destination: KGJT Walker
United States
More flights between these airports :: More routes between these airports
Route: +ALPIN2 KICNE
File this flight plan on PilotEdge
Remarks:
Altitude:
(Current/Filed)
25,000ft
Speed:
(Current/Filed)
400kts
Departed: 13-Feb-18 10:30 AM
Arrived: 13-Feb-18 11:19 AM
Distance/Time
Traveled:
287nm/0:49
Distance/Time
To Go:
Arrived

Flight Plot

Page will automatically refresh every two minutes.

Flight plan parsing failed; only flown route is shown


Map Options




Map Legend


Flown Route
Filed Route
Departure Airport
Arrival Airport
Navaid (VOR, NDB)
Fix

Horizontal Profiles

Position Reports

Time Latitude Longitude Heading Altitude Ground
Speed
13-Feb-18 10:26 43.600744 -110.738163 110 6458ft 0kts
13-Feb-18 10:27 43.600744 -110.738163 110 6458ft 0kts
13-Feb-18 10:28 43.600744 -110.738163 110 6458ft 0kts
13-Feb-18 10:29 43.600744 -110.738163 110 6458ft 0kts
13-Feb-18 10:30 43.600744 -110.738163 110 6458ft 0kts
13-Feb-18 10:31 43.600744 -110.738163 110 6458ft 0kts
13-Feb-18 10:32 43.600744 -110.738163 110 6458ft 0kts
13-Feb-18 10:33 43.600738 -110.738138 110 6458ft 1kts
13-Feb-18 10:34 43.604131 -110.737803 23 6458ft 22kts
13-Feb-18 10:35 43.611097 -110.734370 20 6458ft 30kts
13-Feb-18 10:36 43.614477 -110.734298 198 6458ft 21kts
13-Feb-18 10:37 43.579191 -110.754670 204 8081ft 180kts
13-Feb-18 10:38 43.532595 -110.783299 205 10679ft 198kts
13-Feb-18 10:39 43.478611 -110.816984 205 12680ft 221kts
13-Feb-18 10:40 43.417902 -110.853641 205 14433ft 255kts
13-Feb-18 10:41 43.344536 -110.897186 207 15090ft 332kts
13-Feb-18 10:42 43.259161 -110.958115 211 16874ft 356kts
13-Feb-18 10:43 43.161689 -110.951294 157 18614ft 391kts
13-Feb-18 10:44 43.061895 -110.886670 157 20274ft 406kts
13-Feb-18 10:45 42.958470 -110.820456 156 21843ft 418kts
13-Feb-18 10:46 42.852538 -110.752907 154 23464ft 425kts
13-Feb-18 10:47 42.744063 -110.684008 154 24661ft 437kts
13-Feb-18 10:48 42.631321 -110.612689 154 25231ft 466kts
13-Feb-18 10:49 42.535191 -110.552106 154 25302ft 476kts
13-Feb-18 10:50 42.417012 -110.477971 154 25244ft 471kts
13-Feb-18 10:51 42.297472 -110.403304 154 25272ft 472kts
13-Feb-18 10:52 42.178468 -110.329199 154 25258ft 472kts
13-Feb-18 10:53 42.059710 -110.255562 154 25247ft 471kts
13-Feb-18 10:54 41.940793 -110.182134 154 25294ft 474kts
13-Feb-18 10:55 41.820746 -110.108316 154 25307ft 475kts
13-Feb-18 10:56 41.700807 -110.034864 154 25311ft 474kts
13-Feb-18 10:57 41.581632 -109.962168 154 25294ft 472kts
13-Feb-18 10:58 41.462312 -109.889560 154 25296ft 475kts
13-Feb-18 10:59 41.343934 -109.817168 155 25261ft 471kts
13-Feb-18 11:00 41.224081 -109.744945 155 25275ft 474kts
13-Feb-18 11:01 41.103912 -109.672818 155 25280ft 478kts
13-Feb-18 11:02 40.984645 -109.601507 158 25286ft 452kts
13-Feb-18 11:03 40.872712 -109.534901 158 25283ft 446kts
13-Feb-18 11:04 40.760633 -109.468410 158 25279ft 442kts
13-Feb-18 11:05 40.648835 -109.402329 158 25271ft 442kts
13-Feb-18 11:06 40.536803 -109.336357 158 25275ft 441kts
13-Feb-18 11:07 40.427129 -109.272053 158 25217ft 438kts
13-Feb-18 11:08 40.315982 -109.207153 158 25273ft 443kts
13-Feb-18 11:09 40.205217 -109.142612 159 25279ft 441kts
13-Feb-18 11:10 40.096880 -109.079658 160 23997ft 405kts
13-Feb-18 11:11 39.995247 -109.020899 160 21780ft 397kts
13-Feb-18 11:12 39.894745 -108.967483 169 19311ft 393kts
13-Feb-18 11:13 39.788864 -108.932762 169 16820ft 389kts
13-Feb-18 11:14 39.687053 -108.900565 169 14350ft 374kts
13-Feb-18 11:15 39.601155 -108.880840 179 13513ft 296kts
13-Feb-18 11:16 39.522946 -108.872576 179 12043ft 273kts
13-Feb-18 11:17 39.447782 -108.864581 179 11115ft 277kts
13-Feb-18 11:18 39.371913 -108.856020 179 9985ft 276kts
13-Feb-18 11:19 39.310340 -108.815189 149 10031ft 244kts
13-Feb-18 11:20 39.258615 -108.764940 141 9797ft 212kts
13-Feb-18 11:21 39.221517 -108.704479 126 7582ft 215kts
13-Feb-18 11:22 39.191850 -108.648353 125 6656ft 157kts
13-Feb-18 11:23 39.168610 -108.605811 125 5934ft 143kts
13-Feb-18 11:24 39.146061 -108.564650 124 5251ft 137kts
13-Feb-18 11:25 39.126417 -108.528803 124 4864ft 65kts
13-Feb-18 11:26 39.121889 -108.523116 124 4864ft 16kts
13-Feb-18 11:27 39.120840 -108.523404 217 4864ft 0kts
13-Feb-18 11:28 39.120840 -108.523404 217 4864ft 0kts
13-Feb-18 11:29 39.120840 -108.523404 217 4864ft 0kts
13-Feb-18 11:30 39.120840 -108.523404 217 4864ft 0kts
13-Feb-18 11:31 39.120840 -108.523404 217 4864ft 0kts
13-Feb-18 11:32 39.120840 -108.523404 217 4864ft 0kts
13-Feb-18 11:33 39.120840 -108.523404 217 4864ft 0kts
13-Feb-18 11:34 39.120840 -108.523404 217 4864ft 0kts
13-Feb-18 11:35 39.120840 -108.523404 217 4864ft 0kts
13-Feb-18 11:36 39.120840 -108.523404 217 4864ft 0kts
13-Feb-18 11:37 39.120840 -108.523404 217 4864ft 0kts
13-Feb-18 11:38 39.120840 -108.523404 217 4864ft 0kts
13-Feb-18 11:39 39.120840 -108.523404 217 4864ft 0kts
13-Feb-18 11:40 39.120840 -108.523404 217 4864ft 0kts

Navigation Log

Ident Type
Flight plan parsing failed, navigation log unavailable